Aeroporto :
LOGIN :

Iscrizione | Disclaimer

   EN    FR    IT 

 










Sommario :    VFR   VFR Marginale   IFR   IFR Intensivo   IFR Molto Intensivo
Visibilità : 
Base nubi : 
>= 8 km
>= 3000ft
5 / 8 km
1000 / 3000 ft
1500m / 5 km
500 / 1000 ft
800 / 1500m
200 / 500 ft
< 800m
< 200 ft
Simboli :   Temporali  Nebbia  Neve Forte  Precipitazioni Forti  Vento > 20 kt
SIGMETs :   Varie  Temporali  Ghiacco  Turbolenza  Onda orograficha  Ceneri Vulcaniche






- Altitudine del aeroporto : 1516 ft
- Codice IATA : AGB


EDMA - Augsburg

ULTIMO METAR :
  • 271920Z 13005KT 090V150 1300 R25/1700U BR OVC001 00/00 Q1020

METARs OBSOLETI :
  • 271850Z 12006KT 1600 BR BKN002 OVC005 00/00 Q1021
  • 271820Z 11006KT 1400 R25/1800U BR BKN002 OVC005 00/00 Q1021
  • 271750Z 13007KT 2300 BR OVC001 00/00 Q1021
  • 271720Z 12007KT 1900 BR OVC002 00/00 Q1022
  • 271650Z 11007KT 080V140 1100 R25/1700D BR VV/// 00/00 Q1022

TAF AMD TAF EDMA
Valido dal 27 a 19 ore il 28 a 03 ore UTC


271901Z 2719/2803 10004KT 2000 BR BKN002
BECMG 2719/2721 0800 FG
TEMPO 2721/2801 0300 FZFG VV001
PROB30
TEMPO 2801/2803 1500 BR



MetMap, La meteo Aeronautica in un colpo d'occhio ! - Copyright ORBIFLY Dicembre 2007 - Disclaimer

ORBIFLY MET'MAP TEAM :

Programmazione e sviluppo : Alexandra Zaïnal
Concezione : Baudouin d'Aumeries
Supporto tecnico e logistico : Manuel Goepfert
Aiuto : Marc-Olivier Méhu
Aiuto per la traduzione : Arnaldo La Scala




FONTI E CREDITI :

   NOAA